METAR - Iceland

Last updated 24.10.2017 - at. 05:47

SIGMET for the last six hours

No SIGMET messages last 6 hours.

METAR from the last three hours

AerodromeTimeMessage
BIAR2017-10-24 05.00METAR BIAR 240500Z VRB02KT 7000 BR BKN025 OVC033 06/06 Q0997
BIAR2017-10-24 04.00METAR BIAR 240400Z 35002KT 5000 BR OVC024 06/06 Q0997
BIAR2017-10-24 03.00METAR BIAR 240300Z 00000KT 9999 BKN023 OVC029 07/06 Q0997
BIEG2017-10-24 05.00METAR BIEG 240500Z 07002KT 0800 R04/P1500 FG VV001 06/06 Q0996 R04/290195
BIEG2017-10-24 04.00METAR BIEG 240400Z 33004KT 2000 BR SCT001 BKN003 OVC006 06/06 Q0996 R04/290195
BIEG2017-10-24 03.00METAR BIEG 240300Z 03008KT 0800 R04/1000D FG VV001 06/06 Q0996 R04/290195
BIKF2017-10-24 05.30METAR BIKF 240530Z 05003KT 9999 MIFG FEW003 SCT055 06/06 Q0995
BIKF2017-10-24 05.00METAR BIKF 240500Z 10004KT 070V130 9999 MIFG FEW035 SCT055 06/06 Q0995
BIKF2017-10-24 04.30METAR BIKF 240430Z 05004KT 9999 FEW035 SCT055 05/05 Q0995
BIKF2017-10-24 04.00METAR BIKF 240400Z 05004KT 9999 FEW035 BKN055 06/05 Q0995
BIKF2017-10-24 03.30METAR BIKF 240330Z 04005KT 9999 FEW035 BKN055 06/06 Q0995
BIKF2017-10-24 03.00METAR BIKF 240300Z 03007KT 9999 FEW035 SCT055 06/04 Q0995
BIRK2017-10-24 05.00METAR BIRK 240500Z 10003KT 080V140 CAVOK 04/01 Q0995
BIRK2017-10-24 04.00METAR BIRK 240400Z VRB01KT CAVOK 05/02 Q0995
BIRK2017-10-24 03.00METAR BIRK 240300Z 03002KT 9999 FEW045 SCT052 BKN062 05/02 Q0995


Other related web sites


This website is built with Eplica CMS